sensor_id;sensor_type;location;lat;lon;timestamp;P1;durP1;ratioP1;P2;durP2;ratioP2
8230;SDS011;4156;50.908;6.974;2024-01-16T00:01:27;8.80;;;4.60;;
8230;SDS011;4156;50.908;6.974;2024-01-16T00:03:53;8.57;;;5.50;;
8230;SDS011;4156;50.908;6.974;2024-01-16T00:06:19;10.87;;;4.80;;
8230;SDS011;4156;50.908;6.974;2024-01-16T00:08:45;6.57;;;3.80;;
8230;SDS011;4156;50.908;6.974;2024-01-16T00:11:11;8.50;;;4.30;;
8230;SDS011;4156;50.908;6.974;2024-01-16T00:13:37;11.93;;;4.63;;
8230;SDS011;4156;50.908;6.974;2024-01-16T00:16:03;8.20;;;4.50;;
8230;SDS011;4156;50.908;6.974;2024-01-16T00:18:29;7.17;;;4.67;;
8230;SDS011;4156;50.908;6.974;2024-01-16T00:20:55;10.30;;;5.03;;
8230;SDS011;4156;50.908;6.974;2024-01-16T00:23:21;9.70;;;5.03;;
8230;SDS011;4156;50.908;6.974;2024-01-16T00:25:47;7.00;;;5.17;;
8230;SDS011;4156;50.908;6.974;2024-01-16T00:28:13;9.60;;;5.10;;
8230;SDS011;4156;50.908;6.974;2024-01-16T00:30:39;9.13;;;4.93;;
8230;SDS011;4156;50.908;6.974;2024-01-16T00:33:05;9.50;;;5.17;;
8230;SDS011;4156;50.908;6.974;2024-01-16T00:35:31;10.23;;;5.00;;
8230;SDS011;4156;50.908;6.974;2024-01-16T00:37:57;8.63;;;4.83;;
8230;SDS011;4156;50.908;6.974;2024-01-16T00:40:23;10.00;;;5.30;;
8230;SDS011;4156;50.908;6.974;2024-01-16T00:42:49;7.00;;;5.07;;
8230;SDS011;4156;50.908;6.974;2024-01-16T00:45:15;7.23;;;5.20;;
8230;SDS011;4156;50.908;6.974;2024-01-16T00:47:42;6.20;;;4.70;;
8230;SDS011;4156;50.908;6.974;2024-01-16T00:50:08;7.37;;;5.17;;
8230;SDS011;4156;50.908;6.974;2024-01-16T00:52:34;9.70;;;5.40;;
8230;SDS011;4156;50.908;6.974;2024-01-16T00:55:00;11.73;;;5.43;;
8230;SDS011;4156;50.908;6.974;2024-01-16T00:57:26;9.13;;;5.53;;
8230;SDS011;4156;50.908;6.974;2024-01-16T00:59:52;8.07;;;5.27;;
8230;SDS011;4156;50.908;6.974;2024-01-16T01:02:18;9.73;;;4.63;;
8230;SDS011;4156;50.908;6.974;2024-01-16T01:04:44;7.27;;;4.53;;
8230;SDS011;4156;50.908;6.974;2024-01-16T01:07:12;8.70;;;5.10;;
8230;SDS011;4156;50.908;6.974;2024-01-16T01:09:38;10.07;;;5.17;;
8230;SDS011;4156;50.908;6.974;2024-01-16T01:12:04;6.80;;;4.67;;
8230;SDS011;4156;50.908;6.974;2024-01-16T01:14:30;10.33;;;5.00;;
8230;SDS011;4156;50.908;6.974;2024-01-16T01:16:56;14.83;;;4.80;;
8230;SDS011;4156;50.908;6.974;2024-01-16T01:19:22;9.07;;;5.00;;
8230;SDS011;4156;50.908;6.974;2024-01-16T01:21:48;6.13;;;4.87;;
8230;SDS011;4156;50.908;6.974;2024-01-16T01:24:14;12.27;;;5.17;;
8230;SDS011;4156;50.908;6.974;2024-01-16T01:26:43;11.87;;;4.47;;
8230;SDS011;4156;50.908;6.974;2024-01-16T01:29:09;11.23;;;4.87;;
8230;SDS011;4156;50.908;6.974;2024-01-16T01:31:35;10.87;;;4.67;;
8230;SDS011;4156;50.908;6.974;2024-01-16T01:34:02;9.53;;;4.13;;
8230;SDS011;4156;50.908;6.974;2024-01-16T01:36:29;7.20;;;3.83;;
8230;SDS011;4156;50.908;6.974;2024-01-16T01:38:55;9.77;;;4.33;;
8230;SDS011;4156;50.908;6.974;2024-01-16T01:41:21;7.50;;;4.30;;
8230;SDS011;4156;50.908;6.974;2024-01-16T01:43:47;6.67;;;4.00;;
8230;SDS011;4156;50.908;6.974;2024-01-16T01:46:13;7.23;;;4.10;;
8230;SDS011;4156;50.908;6.974;2024-01-16T01:48:40;9.33;;;4.30;;
8230;SDS011;4156;50.908;6.974;2024-01-16T01:51:07;9.93;;;4.40;;
8230;SDS011;4156;50.908;6.974;2024-01-16T01:53:33;6.93;;;3.80;;
8230;SDS011;4156;50.908;6.974;2024-01-16T01:56:04;9.70;;;4.80;;
8230;SDS011;4156;50.908;6.974;2024-01-16T01:58:31;5.57;;;4.03;;
8230;SDS011;4156;50.908;6.974;2024-01-16T02:00:57;9.63;;;4.57;;
8230;SDS011;4156;50.908;6.974;2024-01-16T02:03:23;5.23;;;3.70;;
8230;SDS011;4156;50.908;6.974;2024-01-16T02:05:51;7.13;;;4.53;;
8230;SDS011;4156;50.908;6.974;2024-01-16T02:08:17;7.73;;;4.60;;
8230;SDS011;4156;50.908;6.974;2024-01-16T02:10:43;7.33;;;4.50;;
8230;SDS011;4156;50.908;6.974;2024-01-16T02:13:11;11.17;;;4.97;;
8230;SDS011;4156;50.908;6.974;2024-01-16T02:15:37;9.90;;;4.70;;
8230;SDS011;4156;50.908;6.974;2024-01-16T02:18:06;6.13;;;4.33;;
8230;SDS011;4156;50.908;6.974;2024-01-16T02:20:32;10.00;;;5.20;;
8230;SDS011;4156;50.908;6.974;2024-01-16T02:22:58;6.57;;;5.20;;
8230;SDS011;4156;50.908;6.974;2024-01-16T02:25:26;7.13;;;5.37;;
8230;SDS011;4156;50.908;6.974;2024-01-16T02:27:51;8.50;;;5.07;;
8230;SDS011;4156;50.908;6.974;2024-01-16T02:30:17;11.57;;;5.37;;
8230;SDS011;4156;50.908;6.974;2024-01-16T02:32:43;11.73;;;5.20;;
8230;SDS011;4156;50.908;6.974;2024-01-16T02:35:09;8.57;;;5.00;;
8230;SDS011;4156;50.908;6.974;2024-01-16T02:37:35;6.43;;;4.73;;
8230;SDS011;4156;50.908;6.974;2024-01-16T02:40:01;7.27;;;4.40;;
8230;SDS011;4156;50.908;6.974;2024-01-16T02:42:31;6.90;;;4.53;;
8230;SDS011;4156;50.908;6.974;2024-01-16T02:44:57;8.70;;;5.23;;
8230;SDS011;4156;50.908;6.974;2024-01-16T02:47:23;6.37;;;4.70;;
8230;SDS011;4156;50.908;6.974;2024-01-16T02:49:49;8.23;;;4.40;;
8230;SDS011;4156;50.908;6.974;2024-01-16T02:52:15;8.73;;;4.70;;
8230;SDS011;4156;50.908;6.974;2024-01-16T02:54:41;9.10;;;4.73;;
8230;SDS011;4156;50.908;6.974;2024-01-16T02:57:07;5.87;;;4.43;;
8230;SDS011;4156;50.908;6.974;2024-01-16T02:59:33;12.90;;;5.97;;
8230;SDS011;4156;50.908;6.974;2024-01-16T03:01:59;9.17;;;4.83;;
8230;SDS011;4156;50.908;6.974;2024-01-16T03:04:25;12.20;;;4.97;;
8230;SDS011;4156;50.908;6.974;2024-01-16T03:06:51;6.57;;;4.53;;
8230;SDS011;4156;50.908;6.974;2024-01-16T03:09:17;8.80;;;4.63;;
8230;SDS011;4156;50.908;6.974;2024-01-16T03:11:43;8.20;;;4.70;;
8230;SDS011;4156;50.908;6.974;2024-01-16T03:14:09;10.60;;;4.47;;
8230;SDS011;4156;50.908;6.974;2024-01-16T03:16:35;5.60;;;3.97;;
8230;SDS011;4156;50.908;6.974;2024-01-16T03:19:01;10.93;;;4.83;;
8230;SDS011;4156;50.908;6.974;2024-01-16T03:21:27;9.57;;;4.90;;
8230;SDS011;4156;50.908;6.974;2024-01-16T03:23:53;7.70;;;5.00;;
8230;SDS011;4156;50.908;6.974;2024-01-16T03:26:19;9.37;;;5.10;;
8230;SDS011;4156;50.908;6.974;2024-01-16T03:28:45;10.40;;;5.97;;
8230;SDS011;4156;50.908;6.974;2024-01-16T03:31:14;10.07;;;5.20;;
8230;SDS011;4156;50.908;6.974;2024-01-16T03:33:41;7.97;;;5.43;;
8230;SDS011;4156;50.908;6.974;2024-01-16T03:36:08;10.33;;;5.50;;
8230;SDS011;4156;50.908;6.974;2024-01-16T03:38:35;9.23;;;5.53;;
8230;SDS011;4156;50.908;6.974;2024-01-16T03:41:04;10.77;;;5.33;;
8230;SDS011;4156;50.908;6.974;2024-01-16T03:43:32;9.20;;;5.83;;
8230;SDS011;4156;50.908;6.974;2024-01-16T03:45:58;13.87;;;5.30;;
8230;SDS011;4156;50.908;6.974;2024-01-16T03:48:24;11.00;;;5.77;;
8230;SDS011;4156;50.908;6.974;2024-01-16T03:50:50;7.27;;;4.57;;
8230;SDS011;4156;50.908;6.974;2024-01-16T03:53:16;8.07;;;5.27;;
8230;SDS011;4156;50.908;6.974;2024-01-16T03:55:42;8.90;;;4.53;;
8230;SDS011;4156;50.908;6.974;2024-01-16T03:58:08;7.73;;;4.90;;
8230;SDS011;4156;50.908;6.974;2024-01-16T04:00:34;9.70;;;5.30;;
8230;SDS011;4156;50.908;6.974;2024-01-16T04:03:00;9.30;;;5.70;;
8230;SDS011;4156;50.908;6.974;2024-01-16T04:05:26;8.83;;;4.70;;
8230;SDS011;4156;50.908;6.974;2024-01-16T04:07:52;7.80;;;4.70;;
8230;SDS011;4156;50.908;6.974;2024-01-16T04:10:18;9.50;;;6.33;;
8230;SDS011;4156;50.908;6.974;2024-01-16T04:12:44;10.13;;;4.80;;
8230;SDS011;4156;50.908;6.974;2024-01-16T04:15:10;7.03;;;4.93;;
8230;SDS011;4156;50.908;6.974;2024-01-16T04:17:36;9.77;;;5.37;;
8230;SDS011;4156;50.908;6.974;2024-01-16T04:20:02;7.90;;;5.53;;
8230;SDS011;4156;50.908;6.974;2024-01-16T04:22:28;11.97;;;5.47;;
8230;SDS011;4156;50.908;6.974;2024-01-16T04:24:54;9.17;;;6.33;;
8230;SDS011;4156;50.908;6.974;2024-01-16T04:27:20;12.00;;;5.63;;
8230;SDS011;4156;50.908;6.974;2024-01-16T04:29:46;7.93;;;5.17;;
8230;SDS011;4156;50.908;6.974;2024-01-16T04:32:12;8.67;;;5.70;;
8230;SDS011;4156;50.908;6.974;2024-01-16T04:34:38;11.30;;;5.27;;
8230;SDS011;4156;50.908;6.974;2024-01-16T04:37:04;10.50;;;5.37;;
8230;SDS011;4156;50.908;6.974;2024-01-16T04:39:30;9.87;;;4.80;;
8230;SDS011;4156;50.908;6.974;2024-01-16T04:41:56;11.73;;;4.60;;
8230;SDS011;4156;50.908;6.974;2024-01-16T04:44:22;10.17;;;4.90;;
8230;SDS011;4156;50.908;6.974;2024-01-16T04:46:48;8.10;;;4.80;;
8230;SDS011;4156;50.908;6.974;2024-01-16T04:49:14;8.80;;;5.13;;
8230;SDS011;4156;50.908;6.974;2024-01-16T04:51:40;9.07;;;4.57;;
8230;SDS011;4156;50.908;6.974;2024-01-16T04:54:07;7.67;;;4.93;;
8230;SDS011;4156;50.908;6.974;2024-01-16T04:56:33;14.73;;;4.73;;
8230;SDS011;4156;50.908;6.974;2024-01-16T04:58:59;9.43;;;4.37;;
8230;SDS011;4156;50.908;6.974;2024-01-16T05:01:25;9.57;;;4.30;;
8230;SDS011;4156;50.908;6.974;2024-01-16T05:03:51;10.40;;;4.53;;
8230;SDS011;4156;50.908;6.974;2024-01-16T05:06:17;10.50;;;4.60;;
8230;SDS011;4156;50.908;6.974;2024-01-16T05:08:42;12.60;;;4.00;;
8230;SDS011;4156;50.908;6.974;2024-01-16T05:11:08;6.33;;;3.93;;
8230;SDS011;4156;50.908;6.974;2024-01-16T05:13:35;11.30;;;5.80;;
8230;SDS011;4156;50.908;6.974;2024-01-16T05:16:00;11.27;;;4.80;;
8230;SDS011;4156;50.908;6.974;2024-01-16T05:18:26;7.87;;;4.33;;
8230;SDS011;4156;50.908;6.974;2024-01-16T05:20:52;8.77;;;4.17;;
8230;SDS011;4156;50.908;6.974;2024-01-16T05:23:21;10.20;;;4.20;;
8230;SDS011;4156;50.908;6.974;2024-01-16T05:25:47;7.07;;;3.63;;
8230;SDS011;4156;50.908;6.974;2024-01-16T05:28:13;7.70;;;4.70;;
8230;SDS011;4156;50.908;6.974;2024-01-16T05:30:39;4.10;;;3.63;;
8230;SDS011;4156;50.908;6.974;2024-01-16T05:33:04;7.67;;;4.17;;
8230;SDS011;4156;50.908;6.974;2024-01-16T05:35:31;8.80;;;4.20;;
8230;SDS011;4156;50.908;6.974;2024-01-16T05:37:57;7.03;;;4.40;;
8230;SDS011;4156;50.908;6.974;2024-01-16T05:40:24;11.73;;;4.13;;
8230;SDS011;4156;50.908;6.974;2024-01-16T05:42:50;6.10;;;4.33;;
8230;SDS011;4156;50.908;6.974;2024-01-16T05:45:16;6.87;;;4.20;;
8230;SDS011;4156;50.908;6.974;2024-01-16T05:47:42;5.87;;;4.07;;
8230;SDS011;4156;50.908;6.974;2024-01-16T05:50:08;14.07;;;4.10;;
8230;SDS011;4156;50.908;6.974;2024-01-16T05:52:34;8.23;;;4.40;;
8230;SDS011;4156;50.908;6.974;2024-01-16T05:55:00;8.83;;;3.73;;
8230;SDS011;4156;50.908;6.974;2024-01-16T05:57:27;21.83;;;7.37;;
8230;SDS011;4156;50.908;6.974;2024-01-16T05:59:53;10.47;;;4.30;;
8230;SDS011;4156;50.908;6.974;2024-01-16T06:02:20;9.33;;;4.57;;
8230;SDS011;4156;50.908;6.974;2024-01-16T06:04:46;11.23;;;5.10;;
8230;SDS011;4156;50.908;6.974;2024-01-16T06:07:12;10.00;;;4.80;;
8230;SDS011;4156;50.908;6.974;2024-01-16T06:09:38;9.93;;;4.57;;
8230;SDS011;4156;50.908;6.974;2024-01-16T06:12:07;6.67;;;4.00;;
8230;SDS011;4156;50.908;6.974;2024-01-16T06:14:33;7.87;;;4.03;;
8230;SDS011;4156;50.908;6.974;2024-01-16T06:17:00;12.00;;;5.07;;
8230;SDS011;4156;50.908;6.974;2024-01-16T06:19:26;5.23;;;3.50;;
8230;SDS011;4156;50.908;6.974;2024-01-16T06:21:52;7.93;;;3.53;;
8230;SDS011;4156;50.908;6.974;2024-01-16T06:24:18;5.17;;;3.30;;
8230;SDS011;4156;50.908;6.974;2024-01-16T06:26:44;8.03;;;4.07;;
8230;SDS011;4156;50.908;6.974;2024-01-16T06:29:10;8.57;;;4.00;;
8230;SDS011;4156;50.908;6.974;2024-01-16T06:31:35;10.17;;;4.40;;
8230;SDS011;4156;50.908;6.974;2024-01-16T06:34:02;6.90;;;3.73;;
8230;SDS011;4156;50.908;6.974;2024-01-16T06:36:28;10.73;;;4.00;;
8230;SDS011;4156;50.908;6.974;2024-01-16T06:38:54;12.90;;;3.83;;
8230;SDS011;4156;50.908;6.974;2024-01-16T06:41:20;9.40;;;3.60;;
8230;SDS011;4156;50.908;6.974;2024-01-16T06:43:46;7.53;;;3.10;;
8230;SDS011;4156;50.908;6.974;2024-01-16T06:46:12;10.73;;;4.13;;
8230;SDS011;4156;50.908;6.974;2024-01-16T06:48:38;11.13;;;3.67;;
8230;SDS011;4156;50.908;6.974;2024-01-16T06:51:04;7.33;;;3.77;;
8230;SDS011;4156;50.908;6.974;2024-01-16T06:53:30;4.83;;;3.63;;
8230;SDS011;4156;50.908;6.974;2024-01-16T06:55:56;10.83;;;4.33;;
8230;SDS011;4156;50.908;6.974;2024-01-16T06:58:22;6.93;;;3.40;;
8230;SDS011;4156;50.908;6.974;2024-01-16T07:00:48;6.77;;;4.60;;
8230;SDS011;4156;50.908;6.974;2024-01-16T07:03:14;12.17;;;3.70;;
8230;SDS011;4156;50.908;6.974;2024-01-16T07:05:40;11.17;;;3.77;;
8230;SDS011;4156;50.908;6.974;2024-01-16T07:08:07;10.73;;;3.40;;
8230;SDS011;4156;50.908;6.974;2024-01-16T07:10:33;9.33;;;3.57;;
8230;SDS011;4156;50.908;6.974;2024-01-16T07:13:00;8.30;;;3.33;;
8230;SDS011;4156;50.908;6.974;2024-01-16T07:15:26;5.63;;;3.00;;
8230;SDS011;4156;50.908;6.974;2024-01-16T07:17:52;11.90;;;3.80;;
8230;SDS011;4156;50.908;6.974;2024-01-16T07:20:18;7.97;;;2.80;;
8230;SDS011;4156;50.908;6.974;2024-01-16T07:22:44;7.57;;;2.97;;
8230;SDS011;4156;50.908;6.974;2024-01-16T07:25:10;6.70;;;3.63;;
8230;SDS011;4156;50.908;6.974;2024-01-16T07:27:36;9.50;;;3.17;;
8230;SDS011;4156;50.908;6.974;2024-01-16T07:30:06;8.60;;;3.13;;
8230;SDS011;4156;50.908;6.974;2024-01-16T07:32:32;5.80;;;3.17;;
8230;SDS011;4156;50.908;6.974;2024-01-16T07:34:58;7.23;;;2.97;;
8230;SDS011;4156;50.908;6.974;2024-01-16T07:37:24;6.30;;;3.23;;
8230;SDS011;4156;50.908;6.974;2024-01-16T07:39:50;5.23;;;2.80;;
8230;SDS011;4156;50.908;6.974;2024-01-16T07:42:16;9.97;;;4.17;;
8230;SDS011;4156;50.908;6.974;2024-01-16T07:44:42;7.10;;;3.27;;
8230;SDS011;4156;50.908;6.974;2024-01-16T07:47:08;6.63;;;3.10;;
8230;SDS011;4156;50.908;6.974;2024-01-16T07:49:34;5.63;;;2.83;;
8230;SDS011;4156;50.908;6.974;2024-01-16T07:52:00;4.63;;;2.13;;
8230;SDS011;4156;50.908;6.974;2024-01-16T07:54:26;8.90;;;2.60;;
8230;SDS011;4156;50.908;6.974;2024-01-16T07:56:52;5.83;;;2.53;;
8230;SDS011;4156;50.908;6.974;2024-01-16T07:59:18;7.13;;;2.40;;
8230;SDS011;4156;50.908;6.974;2024-01-16T08:01:44;4.93;;;2.50;;
8230;SDS011;4156;50.908;6.974;2024-01-16T08:04:10;8.53;;;3.23;;
8230;SDS011;4156;50.908;6.974;2024-01-16T08:06:36;6.80;;;2.50;;
8230;SDS011;4156;50.908;6.974;2024-01-16T08:09:02;4.07;;;2.50;;
8230;SDS011;4156;50.908;6.974;2024-01-16T08:11:28;9.67;;;2.67;;
8230;SDS011;4156;50.908;6.974;2024-01-16T08:13:56;11.53;;;2.80;;
8230;SDS011;4156;50.908;6.974;2024-01-16T08:16:22;7.17;;;2.80;;
8230;SDS011;4156;50.908;6.974;2024-01-16T08:18:48;8.83;;;3.30;;
8230;SDS011;4156;50.908;6.974;2024-01-16T08:21:14;7.40;;;2.90;;
8230;SDS011;4156;50.908;6.974;2024-01-16T08:23:40;7.03;;;2.67;;
8230;SDS011;4156;50.908;6.974;2024-01-16T08:26:06;5.37;;;2.80;;
8230;SDS011;4156;50.908;6.974;2024-01-16T08:28:32;8.23;;;4.07;;
8230;SDS011;4156;50.908;6.974;2024-01-16T08:30:58;9.60;;;3.03;;
8230;SDS011;4156;50.908;6.974;2024-01-16T08:33:24;11.73;;;3.20;;
8230;SDS011;4156;50.908;6.974;2024-01-16T08:35:50;10.17;;;2.73;;
8230;SDS011;4156;50.908;6.974;2024-01-16T08:38:16;3.73;;;2.60;;
8230;SDS011;4156;50.908;6.974;2024-01-16T08:40:42;6.67;;;2.53;;
8230;SDS011;4156;50.908;6.974;2024-01-16T08:43:08;9.27;;;2.80;;
8230;SDS011;4156;50.908;6.974;2024-01-16T08:45:34;8.83;;;3.20;;
8230;SDS011;4156;50.908;6.974;2024-01-16T08:48:00;6.73;;;2.80;;
8230;SDS011;4156;50.908;6.974;2024-01-16T08:50:26;4.17;;;2.30;;
8230;SDS011;4156;50.908;6.974;2024-01-16T08:52:52;6.13;;;2.27;;
8230;SDS011;4156;50.908;6.974;2024-01-16T08:55:18;4.33;;;2.33;;
8230;SDS011;4156;50.908;6.974;2024-01-16T08:57:44;3.63;;;2.60;;
8230;SDS011;4156;50.908;6.974;2024-01-16T09:00:10;7.90;;;2.60;;
8230;SDS011;4156;50.908;6.974;2024-01-16T09:02:37;7.90;;;2.50;;
8230;SDS011;4156;50.908;6.974;2024-01-16T09:05:03;7.73;;;2.67;;
8230;SDS011;4156;50.908;6.974;2024-01-16T09:07:30;4.23;;;2.50;;
8230;SDS011;4156;50.908;6.974;2024-01-16T09:09:56;7.37;;;2.37;;
8230;SDS011;4156;50.908;6.974;2024-01-16T09:12:22;5.70;;;2.40;;
8230;SDS011;4156;50.908;6.974;2024-01-16T09:14:48;5.97;;;2.20;;
8230;SDS011;4156;50.908;6.974;2024-01-16T09:17:14;6.07;;;2.47;;
8230;SDS011;4156;50.908;6.974;2024-01-16T09:19:40;6.43;;;2.30;;
8230;SDS011;4156;50.908;6.974;2024-01-16T09:22:06;6.13;;;2.27;;
8230;SDS011;4156;50.908;6.974;2024-01-16T09:24:32;3.80;;;2.17;;
8230;SDS011;4156;50.908;6.974;2024-01-16T09:26:58;15.57;;;2.87;;
8230;SDS011;4156;50.908;6.974;2024-01-16T09:29:24;4.80;;;1.93;;
8230;SDS011;4156;50.908;6.974;2024-01-16T09:31:50;5.50;;;2.17;;
8230;SDS011;4156;50.908;6.974;2024-01-16T09:34:17;5.77;;;2.87;;
8230;SDS011;4156;50.908;6.974;2024-01-16T09:36:43;8.20;;;2.77;;
8230;SDS011;4156;50.908;6.974;2024-01-16T09:39:09;11.53;;;2.57;;
8230;SDS011;4156;50.908;6.974;2024-01-16T09:41:39;7.57;;;2.30;;
8230;SDS011;4156;50.908;6.974;2024-01-16T09:44:10;4.93;;;2.33;;
8230;SDS011;4156;50.908;6.974;2024-01-16T09:46:57;6.80;;;2.20;;
8230;SDS011;4156;50.908;6.974;2024-01-16T09:49:31;3.60;;;2.20;;
8230;SDS011;4156;50.908;6.974;2024-01-16T09:52:04;5.43;;;3.10;;
8230;SDS011;4156;50.908;6.974;2024-01-16T09:54:36;6.63;;;2.67;;
8230;SDS011;4156;50.908;6.974;2024-01-16T09:57:07;8.33;;;2.20;;
8230;SDS011;4156;50.908;6.974;2024-01-16T09:59:36;6.17;;;2.47;;
8230;SDS011;4156;50.908;6.974;2024-01-16T10:02:04;11.03;;;2.93;;
8230;SDS011;4156;50.908;6.974;2024-01-16T10:04:32;6.73;;;2.80;;
8230;SDS011;4156;50.908;6.974;2024-01-16T10:07:01;5.73;;;2.30;;
8230;SDS011;4156;50.908;6.974;2024-01-16T10:09:45;8.33;;;2.70;;
8230;SDS011;4156;50.908;6.974;2024-01-16T10:12:22;6.50;;;2.93;;
8230;SDS011;4156;50.908;6.974;2024-01-16T10:23:46;7.90;;;2.80;;
8230;SDS011;4156;50.908;6.974;2024-01-16T10:26:13;4.50;;;2.50;;
8230;SDS011;4156;50.908;6.974;2024-01-16T10:28:40;6.93;;;3.20;;
8230;SDS011;4156;50.908;6.974;2024-01-16T10:31:09;5.73;;;2.70;;
8230;SDS011;4156;50.908;6.974;2024-01-16T10:33:37;6.33;;;2.63;;
8230;SDS011;4156;50.908;6.974;2024-01-16T10:36:19;3.97;;;2.37;;
8230;SDS011;4156;50.908;6.974;2024-01-16T10:38:54;12.03;;;3.03;;
8230;SDS011;4156;50.908;6.974;2024-01-16T10:41:35;4.17;;;3.07;;
8230;SDS011;4156;50.908;6.974;2024-01-16T10:44:07;6.90;;;2.60;;
8230;SDS011;4156;50.908;6.974;2024-01-16T10:46:39;9.43;;;2.70;;
8230;SDS011;4156;50.908;6.974;2024-01-16T10:49:08;4.07;;;2.20;;
8230;SDS011;4156;50.908;6.974;2024-01-16T10:51:44;7.60;;;2.47;;
8230;SDS011;4156;50.908;6.974;2024-01-16T10:54:14;8.17;;;2.40;;
8230;SDS011;4156;50.908;6.974;2024-01-16T10:56:43;11.87;;;3.03;;
8230;SDS011;4156;50.908;6.974;2024-01-16T10:59:31;7.23;;;2.70;;
8230;SDS011;4156;50.908;6.974;2024-01-16T11:05:20;8.73;;;2.67;;
8230;SDS011;4156;50.908;6.974;2024-01-16T11:08:07;6.87;;;2.93;;
8230;SDS011;4156;50.908;6.974;2024-01-16T11:10:57;5.20;;;2.37;;
8230;SDS011;4156;50.908;6.974;2024-01-16T11:13:24;5.60;;;2.80;;
8230;SDS011;4156;50.908;6.974;2024-01-16T11:15:55;9.80;;;2.83;;
8230;SDS011;4156;50.908;6.974;2024-01-16T11:18:33;6.13;;;2.83;;
8230;SDS011;4156;50.908;6.974;2024-01-16T11:21:00;8.47;;;3.17;;
8230;SDS011;4156;50.908;6.974;2024-01-16T11:23:48;6.93;;;2.60;;
8230;SDS011;4156;50.908;6.974;2024-01-16T11:26:42;5.07;;;2.80;;
8230;SDS011;4156;50.908;6.974;2024-01-16T11:31:55;5.20;;;2.20;;
8230;SDS011;4156;50.908;6.974;2024-01-16T11:37:08;6.57;;;2.43;;
8230;SDS011;4156;50.908;6.974;2024-01-16T11:39:44;5.83;;;2.60;;
8230;SDS011;4156;50.908;6.974;2024-01-16T11:42:40;5.27;;;2.60;;
8230;SDS011;4156;50.908;6.974;2024-01-16T11:48:14;5.43;;;2.83;;
8230;SDS011;4156;50.908;6.974;2024-01-16T11:50:50;3.33;;;2.10;;
8230;SDS011;4156;50.908;6.974;2024-01-16T12:01:44;7.57;;;3.30;;
8230;SDS011;4156;50.908;6.974;2024-01-16T12:04:11;4.87;;;2.57;;
8230;SDS011;4156;50.908;6.974;2024-01-16T12:06:39;8.73;;;3.13;;
8230;SDS011;4156;50.908;6.974;2024-01-16T12:09:12;6.37;;;2.63;;
8230;SDS011;4156;50.908;6.974;2024-01-16T12:11:39;2.83;;;2.00;;
8230;SDS011;4156;50.908;6.974;2024-01-16T12:14:05;8.33;;;2.40;;
8230;SDS011;4156;50.908;6.974;2024-01-16T12:16:31;3.67;;;2.00;;
8230;SDS011;4156;50.908;6.974;2024-01-16T12:19:07;4.83;;;2.20;;
8230;SDS011;4156;50.908;6.974;2024-01-16T12:21:35;6.77;;;2.43;;
8230;SDS011;4156;50.908;6.974;2024-01-16T12:24:06;3.80;;;2.00;;
8230;SDS011;4156;50.908;6.974;2024-01-16T12:26:41;7.47;;;2.13;;
8230;SDS011;4156;50.908;6.974;2024-01-16T12:29:43;9.43;;;3.03;;
8230;SDS011;4156;50.908;6.974;2024-01-16T12:32:32;5.13;;;2.43;;
8230;SDS011;4156;50.908;6.974;2024-01-16T12:34:58;5.93;;;2.90;;
8230;SDS011;4156;50.908;6.974;2024-01-16T12:37:24;5.63;;;2.37;;
8230;SDS011;4156;50.908;6.974;2024-01-16T12:39:51;3.23;;;2.43;;
8230;SDS011;4156;50.908;6.974;2024-01-16T12:42:18;5.93;;;2.50;;
8230;SDS011;4156;50.908;6.974;2024-01-16T12:44:44;4.37;;;2.53;;
8230;SDS011;4156;50.908;6.974;2024-01-16T12:47:15;6.33;;;2.57;;
8230;SDS011;4156;50.908;6.974;2024-01-16T12:49:42;4.07;;;2.50;;
8230;SDS011;4156;50.908;6.974;2024-01-16T12:52:22;12.73;;;2.73;;
8230;SDS011;4156;50.908;6.974;2024-01-16T12:55:00;6.63;;;2.73;;
8230;SDS011;4156;50.908;6.974;2024-01-16T12:57:27;4.13;;;2.70;;
8230;SDS011;4156;50.908;6.974;2024-01-16T12:59:54;4.70;;;2.53;;
8230;SDS011;4156;50.908;6.974;2024-01-16T13:02:25;4.73;;;2.87;;
8230;SDS011;4156;50.908;6.974;2024-01-16T13:05:07;11.27;;;3.00;;
8230;SDS011;4156;50.908;6.974;2024-01-16T13:07:40;6.60;;;2.60;;
8230;SDS011;4156;50.908;6.974;2024-01-16T13:10:08;6.57;;;2.40;;
8230;SDS011;4156;50.908;6.974;2024-01-16T13:12:34;6.53;;;2.83;;
8230;SDS011;4156;50.908;6.974;2024-01-16T13:15:01;4.80;;;3.00;;
8230;SDS011;4156;50.908;6.974;2024-01-16T13:26:41;10.27;;;2.80;;
8230;SDS011;4156;50.908;6.974;2024-01-16T13:29:08;4.23;;;2.87;;
8230;SDS011;4156;50.908;6.974;2024-01-16T13:31:34;3.57;;;2.80;;
8230;SDS011;4156;50.908;6.974;2024-01-16T13:34:00;4.03;;;2.37;;
8230;SDS011;4156;50.908;6.974;2024-01-16T13:36:26;8.77;;;3.80;;
8230;SDS011;4156;50.908;6.974;2024-01-16T13:38:58;6.77;;;3.00;;
8230;SDS011;4156;50.908;6.974;2024-01-16T13:44:17;7.53;;;3.10;;
8230;SDS011;4156;50.908;6.974;2024-01-16T13:46:50;5.63;;;3.20;;
8230;SDS011;4156;50.908;6.974;2024-01-16T13:49:23;4.00;;;2.63;;
8230;SDS011;4156;50.908;6.974;2024-01-16T13:51:54;6.53;;;3.20;;
8230;SDS011;4156;50.908;6.974;2024-01-16T13:54:46;5.03;;;2.90;;
8230;SDS011;4156;50.908;6.974;2024-01-16T13:57:35;4.47;;;3.20;;
8230;SDS011;4156;50.908;6.974;2024-01-16T14:00:16;5.73;;;2.60;;
8230;SDS011;4156;50.908;6.974;2024-01-16T14:02:46;5.23;;;3.17;;
8230;SDS011;4156;50.908;6.974;2024-01-16T14:05:13;6.00;;;3.10;;
8230;SDS011;4156;50.908;6.974;2024-01-16T14:07:50;8.33;;;3.03;;
8230;SDS011;4156;50.908;6.974;2024-01-16T14:10:17;7.17;;;3.30;;
8230;SDS011;4156;50.908;6.974;2024-01-16T14:12:44;8.57;;;3.00;;
8230;SDS011;4156;50.908;6.974;2024-01-16T14:15:11;4.93;;;2.80;;
8230;SDS011;4156;50.908;6.974;2024-01-16T14:17:42;11.10;;;3.73;;
8230;SDS011;4156;50.908;6.974;2024-01-16T14:20:09;7.73;;;3.20;;
8230;SDS011;4156;50.908;6.974;2024-01-16T14:22:36;8.70;;;3.10;;
8230;SDS011;4156;50.908;6.974;2024-01-16T14:25:11;4.93;;;2.73;;
8230;SDS011;4156;50.908;6.974;2024-01-16T14:27:42;6.50;;;3.20;;
8230;SDS011;4156;50.908;6.974;2024-01-16T14:30:11;6.37;;;3.37;;
8230;SDS011;4156;50.908;6.974;2024-01-16T14:33:03;6.43;;;3.00;;
8230;SDS011;4156;50.908;6.974;2024-01-16T14:35:32;6.70;;;3.37;;
8230;SDS011;4156;50.908;6.974;2024-01-16T14:38:05;3.90;;;2.67;;
8230;SDS011;4156;50.908;6.974;2024-01-16T14:40:40;3.60;;;2.50;;
8230;SDS011;4156;50.908;6.974;2024-01-16T14:43:12;6.87;;;2.90;;
8230;SDS011;4156;50.908;6.974;2024-01-16T14:45:40;6.47;;;2.77;;
8230;SDS011;4156;50.908;6.974;2024-01-16T14:48:08;3.53;;;2.57;;
8230;SDS011;4156;50.908;6.974;2024-01-16T14:50:41;5.77;;;2.60;;
8230;SDS011;4156;50.908;6.974;2024-01-16T14:53:34;10.07;;;3.80;;
8230;SDS011;4156;50.908;6.974;2024-01-16T14:56:04;5.20;;;2.60;;
8230;SDS011;4156;50.908;6.974;2024-01-16T14:58:39;4.50;;;2.57;;
8230;SDS011;4156;50.908;6.974;2024-01-16T15:01:17;5.67;;;2.97;;
8230;SDS011;4156;50.908;6.974;2024-01-16T15:04:03;6.20;;;3.70;;
8230;SDS011;4156;50.908;6.974;2024-01-16T15:06:59;7.83;;;2.90;;
8230;SDS011;4156;50.908;6.974;2024-01-16T15:09:36;3.60;;;2.57;;
8230;SDS011;4156;50.908;6.974;2024-01-16T15:12:45;6.50;;;2.97;;
8230;SDS011;4156;50.908;6.974;2024-01-16T15:15:34;8.03;;;3.10;;
8230;SDS011;4156;50.908;6.974;2024-01-16T15:18:15;4.67;;;2.70;;
8230;SDS011;4156;50.908;6.974;2024-01-16T15:21:13;5.23;;;2.80;;
8230;SDS011;4156;50.908;6.974;2024-01-16T15:23:43;5.00;;;2.67;;
8230;SDS011;4156;50.908;6.974;2024-01-16T15:26:12;5.37;;;3.07;;
8230;SDS011;4156;50.908;6.974;2024-01-16T15:28:50;5.67;;;2.87;;
8230;SDS011;4156;50.908;6.974;2024-01-16T15:31:20;8.13;;;2.63;;
8230;SDS011;4156;50.908;6.974;2024-01-16T15:33:51;8.47;;;2.80;;
8230;SDS011;4156;50.908;6.974;2024-01-16T15:36:48;7.00;;;3.20;;
8230;SDS011;4156;50.908;6.974;2024-01-16T15:39:28;5.07;;;2.63;;
8230;SDS011;4156;50.908;6.974;2024-01-16T15:42:01;5.40;;;2.70;;
8230;SDS011;4156;50.908;6.974;2024-01-16T15:44:33;3.17;;;2.53;;
8230;SDS011;4156;50.908;6.974;2024-01-16T15:47:40;6.30;;;2.77;;
8230;SDS011;4156;50.908;6.974;2024-01-16T15:50:10;4.20;;;2.90;;
8230;SDS011;4156;50.908;6.974;2024-01-16T15:52:43;5.60;;;2.77;;
8230;SDS011;4156;50.908;6.974;2024-01-16T15:55:24;7.50;;;3.40;;
8230;SDS011;4156;50.908;6.974;2024-01-16T15:58:21;4.80;;;2.93;;
8230;SDS011;4156;50.908;6.974;2024-01-16T16:00:49;4.90;;;2.90;;
8230;SDS011;4156;50.908;6.974;2024-01-16T16:03:16;6.13;;;3.00;;
8230;SDS011;4156;50.908;6.974;2024-01-16T16:05:52;5.03;;;2.40;;